sensor_id;sensor_type;location;lat;lon;timestamp;P1;durP1;ratioP1;P2;durP2;ratioP2
5696;SDS011;2873;50.966;7.210;2023-08-06T00:00:07;3.77;;;3.00;;
5696;SDS011;2873;50.966;7.210;2023-08-06T00:02:33;3.40;;;3.03;;
5696;SDS011;2873;50.966;7.210;2023-08-06T00:04:59;4.90;;;3.00;;
5696;SDS011;2873;50.966;7.210;2023-08-06T00:07:24;5.40;;;3.33;;
5696;SDS011;2873;50.966;7.210;2023-08-06T00:09:50;2.77;;;2.57;;
5696;SDS011;2873;50.966;7.210;2023-08-06T00:12:15;5.15;;;2.90;;
5696;SDS011;2873;50.966;7.210;2023-08-06T00:14:41;3.97;;;3.07;;
5696;SDS011;2873;50.966;7.210;2023-08-06T00:17:07;3.28;;;2.97;;
5696;SDS011;2873;50.966;7.210;2023-08-06T00:19:33;4.33;;;2.90;;
5696;SDS011;2873;50.966;7.210;2023-08-06T00:21:58;8.13;;;2.87;;
5696;SDS011;2873;50.966;7.210;2023-08-06T00:24:24;3.55;;;3.00;;
5696;SDS011;2873;50.966;7.210;2023-08-06T00:26:49;2.97;;;2.77;;
5696;SDS011;2873;50.966;7.210;2023-08-06T00:29:15;3.50;;;3.20;;
5696;SDS011;2873;50.966;7.210;2023-08-06T00:31:40;6.82;;;3.22;;
5696;SDS011;2873;50.966;7.210;2023-08-06T00:34:06;5.60;;;2.97;;
5696;SDS011;2873;50.966;7.210;2023-08-06T00:36:32;2.77;;;2.57;;
5696;SDS011;2873;50.966;7.210;2023-08-06T00:38:57;5.90;;;2.72;;
5696;SDS011;2873;50.966;7.210;2023-08-06T00:41:23;5.75;;;2.55;;
5696;SDS011;2873;50.966;7.210;2023-08-06T00:43:48;4.30;;;2.77;;
5696;SDS011;2873;50.966;7.210;2023-08-06T00:46:14;4.70;;;3.20;;
5696;SDS011;2873;50.966;7.210;2023-08-06T00:48:40;4.25;;;2.90;;
5696;SDS011;2873;50.966;7.210;2023-08-06T00:51:06;3.17;;;2.85;;
5696;SDS011;2873;50.966;7.210;2023-08-06T00:53:34;3.92;;;3.03;;
5696;SDS011;2873;50.966;7.210;2023-08-06T00:55:59;3.47;;;2.97;;
5696;SDS011;2873;50.966;7.210;2023-08-06T00:58:25;4.90;;;3.38;;
5696;SDS011;2873;50.966;7.210;2023-08-06T01:00:51;3.20;;;3.00;;
5696;SDS011;2873;50.966;7.210;2023-08-06T01:03:16;6.37;;;3.20;;
5696;SDS011;2873;50.966;7.210;2023-08-06T01:05:42;4.30;;;2.80;;
5696;SDS011;2873;50.966;7.210;2023-08-06T01:08:12;3.97;;;3.50;;
5696;SDS011;2873;50.966;7.210;2023-08-06T01:10:51;3.50;;;3.20;;
5696;SDS011;2873;50.966;7.210;2023-08-06T01:16:09;3.50;;;3.20;;
5696;SDS011;2873;50.966;7.210;2023-08-06T01:18:36;6.25;;;3.28;;
5696;SDS011;2873;50.966;7.210;2023-08-06T01:21:04;3.28;;;2.90;;
5696;SDS011;2873;50.966;7.210;2023-08-06T01:23:29;4.25;;;3.63;;
5696;SDS011;2873;50.966;7.210;2023-08-06T01:25:56;4.00;;;3.40;;
5696;SDS011;2873;50.966;7.210;2023-08-06T01:28:44;14.25;;;3.55;;
5696;SDS011;2873;50.966;7.210;2023-08-06T01:31:27;3.65;;;3.33;;
5696;SDS011;2873;50.966;7.210;2023-08-06T01:33:57;3.50;;;3.20;;
5696;SDS011;2873;50.966;7.210;2023-08-06T01:36:24;3.33;;;3.03;;
5696;SDS011;2873;50.966;7.210;2023-08-06T01:38:51;7.13;;;3.20;;
5696;SDS011;2873;50.966;7.210;2023-08-06T01:41:18;5.47;;;3.50;;
5696;SDS011;2873;50.966;7.210;2023-08-06T01:43:44;4.50;;;3.38;;
5696;SDS011;2873;50.966;7.210;2023-08-06T01:46:09;3.83;;;3.00;;
5696;SDS011;2873;50.966;7.210;2023-08-06T01:48:35;5.68;;;3.20;;
5696;SDS011;2873;50.966;7.210;2023-08-06T01:51:01;3.80;;;2.88;;
5696;SDS011;2873;50.966;7.210;2023-08-06T01:53:29;5.22;;;3.13;;
5696;SDS011;2873;50.966;7.210;2023-08-06T01:55:54;3.20;;;2.90;;
5696;SDS011;2873;50.966;7.210;2023-08-06T01:58:20;3.70;;;2.83;;
5696;SDS011;2873;50.966;7.210;2023-08-06T02:00:45;3.73;;;3.00;;
5696;SDS011;2873;50.966;7.210;2023-08-06T02:03:11;5.22;;;3.25;;
5696;SDS011;2873;50.966;7.210;2023-08-06T02:05:36;3.40;;;3.10;;
5696;SDS011;2873;50.966;7.210;2023-08-06T02:08:02;4.33;;;2.93;;
5696;SDS011;2873;50.966;7.210;2023-08-06T02:10:27;4.37;;;3.07;;
5696;SDS011;2873;50.966;7.210;2023-08-06T02:12:56;4.75;;;3.00;;
5696;SDS011;2873;50.966;7.210;2023-08-06T02:15:21;3.17;;;2.88;;
5696;SDS011;2873;50.966;7.210;2023-08-06T02:17:47;3.60;;;3.00;;
5696;SDS011;2873;50.966;7.210;2023-08-06T02:20:12;9.07;;;3.20;;
5696;SDS011;2873;50.966;7.210;2023-08-06T02:22:38;3.70;;;3.05;;
5696;SDS011;2873;50.966;7.210;2023-08-06T02:25:03;3.22;;;3.00;;
5696;SDS011;2873;50.966;7.210;2023-08-06T02:27:29;4.00;;;3.20;;
5696;SDS011;2873;50.966;7.210;2023-08-06T02:29:55;4.90;;;2.80;;
5696;SDS011;2873;50.966;7.210;2023-08-06T02:32:21;4.90;;;3.30;;
5696;SDS011;2873;50.966;7.210;2023-08-06T02:34:46;5.65;;;2.90;;
5696;SDS011;2873;50.966;7.210;2023-08-06T02:37:12;3.00;;;2.70;;
5696;SDS011;2873;50.966;7.210;2023-08-06T02:39:37;4.73;;;3.20;;
5696;SDS011;2873;50.966;7.210;2023-08-06T02:42:07;4.80;;;3.60;;
5696;SDS011;2873;50.966;7.210;2023-08-06T02:44:33;4.38;;;3.10;;
5696;SDS011;2873;50.966;7.210;2023-08-06T02:46:59;3.30;;;3.10;;
5696;SDS011;2873;50.966;7.210;2023-08-06T02:49:25;5.90;;;3.42;;
5696;SDS011;2873;50.966;7.210;2023-08-06T02:51:50;5.28;;;3.22;;
5696;SDS011;2873;50.966;7.210;2023-08-06T02:54:16;4.10;;;3.07;;
5696;SDS011;2873;50.966;7.210;2023-08-06T02:56:43;3.13;;;2.90;;
5696;SDS011;2873;50.966;7.210;2023-08-06T02:59:10;5.75;;;3.22;;
5696;SDS011;2873;50.966;7.210;2023-08-06T03:01:35;4.07;;;3.60;;
5696;SDS011;2873;50.966;7.210;2023-08-06T03:04:01;4.45;;;3.25;;
5696;SDS011;2873;50.966;7.210;2023-08-06T03:06:27;3.70;;;3.35;;
5696;SDS011;2873;50.966;7.210;2023-08-06T03:08:52;5.32;;;3.10;;
5696;SDS011;2873;50.966;7.210;2023-08-06T03:11:18;6.30;;;3.60;;
5696;SDS011;2873;50.966;7.210;2023-08-06T03:13:44;3.53;;;2.70;;
5696;SDS011;2873;50.966;7.210;2023-08-06T03:16:09;6.00;;;3.20;;
5696;SDS011;2873;50.966;7.210;2023-08-06T03:18:35;4.07;;;3.17;;
5696;SDS011;2873;50.966;7.210;2023-08-06T03:21:00;6.20;;;2.90;;
5696;SDS011;2873;50.966;7.210;2023-08-06T03:23:26;7.93;;;3.10;;
5696;SDS011;2873;50.966;7.210;2023-08-06T03:25:51;6.13;;;3.17;;
5696;SDS011;2873;50.966;7.210;2023-08-06T03:28:17;3.35;;;2.90;;
5696;SDS011;2873;50.966;7.210;2023-08-06T03:30:42;3.80;;;3.40;;
5696;SDS011;2873;50.966;7.210;2023-08-06T03:33:08;3.80;;;2.80;;
5696;SDS011;2873;50.966;7.210;2023-08-06T03:35:33;6.57;;;3.28;;
5696;SDS011;2873;50.966;7.210;2023-08-06T03:37:59;3.80;;;2.70;;
5696;SDS011;2873;50.966;7.210;2023-08-06T03:40:25;2.90;;;2.70;;
5696;SDS011;2873;50.966;7.210;2023-08-06T03:42:50;8.93;;;2.93;;
5696;SDS011;2873;50.966;7.210;2023-08-06T03:45:16;5.22;;;3.08;;
5696;SDS011;2873;50.966;7.210;2023-08-06T03:47:41;3.00;;;2.80;;
5696;SDS011;2873;50.966;7.210;2023-08-06T03:50:07;3.40;;;3.10;;
5696;SDS011;2873;50.966;7.210;2023-08-06T03:52:33;4.00;;;3.10;;
5696;SDS011;2873;50.966;7.210;2023-08-06T03:54:58;5.05;;;2.80;;
5696;SDS011;2873;50.966;7.210;2023-08-06T03:57:24;5.07;;;2.77;;
5696;SDS011;2873;50.966;7.210;2023-08-06T03:59:49;3.17;;;2.87;;
5696;SDS011;2873;50.966;7.210;2023-08-06T04:02:15;2.90;;;2.60;;
5696;SDS011;2873;50.966;7.210;2023-08-06T04:04:40;5.60;;;2.88;;
5696;SDS011;2873;50.966;7.210;2023-08-06T04:07:06;3.23;;;2.93;;
5696;SDS011;2873;50.966;7.210;2023-08-06T04:09:31;7.10;;;2.80;;
5696;SDS011;2873;50.966;7.210;2023-08-06T04:11:57;4.65;;;2.40;;
5696;SDS011;2873;50.966;7.210;2023-08-06T04:14:23;4.22;;;2.70;;
5696;SDS011;2873;50.966;7.210;2023-08-06T04:16:51;2.83;;;2.55;;
5696;SDS011;2873;50.966;7.210;2023-08-06T04:19:16;4.50;;;2.50;;
5696;SDS011;2873;50.966;7.210;2023-08-06T04:21:42;4.80;;;2.43;;
5696;SDS011;2873;50.966;7.210;2023-08-06T04:24:07;3.80;;;2.38;;
5696;SDS011;2873;50.966;7.210;2023-08-06T04:26:33;2.65;;;2.40;;
5696;SDS011;2873;50.966;7.210;2023-08-06T04:28:58;4.23;;;2.73;;
5696;SDS011;2873;50.966;7.210;2023-08-06T04:31:24;6.03;;;3.07;;
5696;SDS011;2873;50.966;7.210;2023-08-06T04:33:49;2.58;;;2.30;;
5696;SDS011;2873;50.966;7.210;2023-08-06T04:36:15;3.88;;;2.38;;
5696;SDS011;2873;50.966;7.210;2023-08-06T04:38:40;3.20;;;2.40;;
5696;SDS011;2873;50.966;7.210;2023-08-06T04:41:10;3.53;;;2.40;;
5696;SDS011;2873;50.966;7.210;2023-08-06T04:43:36;3.80;;;2.60;;
5696;SDS011;2873;50.966;7.210;2023-08-06T04:46:02;10.27;;;2.42;;
5696;SDS011;2873;50.966;7.210;2023-08-06T04:48:27;3.45;;;2.78;;
5696;SDS011;2873;50.966;7.210;2023-08-06T04:50:53;5.17;;;2.70;;
5696;SDS011;2873;50.966;7.210;2023-08-06T04:53:19;2.90;;;2.60;;
5696;SDS011;2873;50.966;7.210;2023-08-06T04:55:45;3.73;;;2.53;;
5696;SDS011;2873;50.966;7.210;2023-08-06T04:58:11;6.35;;;2.38;;
5696;SDS011;2873;50.966;7.210;2023-08-06T05:00:37;3.10;;;2.40;;
5696;SDS011;2873;50.966;7.210;2023-08-06T05:03:05;3.65;;;2.50;;
5696;SDS011;2873;50.966;7.210;2023-08-06T05:05:31;5.93;;;2.50;;
5696;SDS011;2873;50.966;7.210;2023-08-06T05:07:56;5.32;;;2.70;;
5696;SDS011;2873;50.966;7.210;2023-08-06T05:10:25;3.03;;;2.65;;
5696;SDS011;2873;50.966;7.210;2023-08-06T05:12:51;2.60;;;2.40;;
5696;SDS011;2873;50.966;7.210;2023-08-06T05:15:17;2.53;;;2.33;;
5696;SDS011;2873;50.966;7.210;2023-08-06T05:17:43;2.20;;;1.95;;
5696;SDS011;2873;50.966;7.210;2023-08-06T05:20:08;5.03;;;2.60;;
5696;SDS011;2873;50.966;7.210;2023-08-06T05:22:34;4.72;;;2.40;;
5696;SDS011;2873;50.966;7.210;2023-08-06T05:25:00;3.60;;;2.10;;
5696;SDS011;2873;50.966;7.210;2023-08-06T05:27:26;3.67;;;2.40;;
5696;SDS011;2873;50.966;7.210;2023-08-06T05:29:54;2.30;;;2.00;;
5696;SDS011;2873;50.966;7.210;2023-08-06T05:32:23;2.40;;;2.20;;
5696;SDS011;2873;50.966;7.210;2023-08-06T05:34:49;2.10;;;2.00;;
5696;SDS011;2873;50.966;7.210;2023-08-06T05:37:14;2.10;;;2.00;;
5696;SDS011;2873;50.966;7.210;2023-08-06T05:39:40;2.10;;;1.90;;
5696;SDS011;2873;50.966;7.210;2023-08-06T05:42:06;2.70;;;2.22;;
5696;SDS011;2873;50.966;7.210;2023-08-06T05:44:31;3.70;;;2.10;;
5696;SDS011;2873;50.966;7.210;2023-08-06T05:46:57;2.00;;;1.80;;
5696;SDS011;2873;50.966;7.210;2023-08-06T05:49:22;3.50;;;2.08;;
5696;SDS011;2873;50.966;7.210;2023-08-06T05:51:48;4.00;;;1.80;;
5696;SDS011;2873;50.966;7.210;2023-08-06T05:54:13;3.43;;;1.90;;
5696;SDS011;2873;50.966;7.210;2023-08-06T05:56:39;4.70;;;1.55;;
5696;SDS011;2873;50.966;7.210;2023-08-06T05:59:05;2.33;;;1.40;;
5696;SDS011;2873;50.966;7.210;2023-08-06T06:01:30;1.97;;;1.87;;
5696;SDS011;2873;50.966;7.210;2023-08-06T06:03:56;5.40;;;2.13;;
5696;SDS011;2873;50.966;7.210;2023-08-06T06:06:21;1.50;;;1.40;;
5696;SDS011;2873;50.966;7.210;2023-08-06T06:08:47;4.65;;;1.58;;
5696;SDS011;2873;50.966;7.210;2023-08-06T06:11:12;1.50;;;1.20;;
5696;SDS011;2873;50.966;7.210;2023-08-06T06:13:38;1.80;;;1.70;;
5696;SDS011;2873;50.966;7.210;2023-08-06T06:16:04;2.40;;;1.97;;
5696;SDS011;2873;50.966;7.210;2023-08-06T06:18:30;2.30;;;1.40;;
5696;SDS011;2873;50.966;7.210;2023-08-06T06:20:56;2.10;;;1.70;;
5696;SDS011;2873;50.966;7.210;2023-08-06T06:23:21;2.05;;;1.90;;
5696;SDS011;2873;50.966;7.210;2023-08-06T06:25:48;3.60;;;1.90;;
5696;SDS011;2873;50.966;7.210;2023-08-06T06:28:14;3.50;;;1.60;;
5696;SDS011;2873;50.966;7.210;2023-08-06T06:30:42;1.50;;;1.30;;
5696;SDS011;2873;50.966;7.210;2023-08-06T06:33:08;2.80;;;1.45;;
5696;SDS011;2873;50.966;7.210;2023-08-06T06:35:33;4.38;;;1.60;;
5696;SDS011;2873;50.966;7.210;2023-08-06T06:37:59;1.52;;;1.30;;
5696;SDS011;2873;50.966;7.210;2023-08-06T06:40:25;1.50;;;1.40;;
5696;SDS011;2873;50.966;7.210;2023-08-06T06:42:51;1.50;;;1.40;;
5696;SDS011;2873;50.966;7.210;2023-08-06T06:45:16;2.08;;;1.90;;
5696;SDS011;2873;50.966;7.210;2023-08-06T06:47:42;4.50;;;1.40;;
5696;SDS011;2873;50.966;7.210;2023-08-06T06:50:08;2.60;;;1.80;;
5696;SDS011;2873;50.966;7.210;2023-08-06T06:52:34;7.30;;;1.45;;
5696;SDS011;2873;50.966;7.210;2023-08-06T06:54:59;1.60;;;1.30;;
5696;SDS011;2873;50.966;7.210;2023-08-06T06:57:25;1.70;;;1.45;;
5696;SDS011;2873;50.966;7.210;2023-08-06T06:59:50;1.13;;;1.13;;
5696;SDS011;2873;50.966;7.210;2023-08-06T07:02:16;2.30;;;1.40;;
5696;SDS011;2873;50.966;7.210;2023-08-06T07:04:41;1.30;;;1.20;;
5696;SDS011;2873;50.966;7.210;2023-08-06T07:07:07;2.80;;;1.10;;
5696;SDS011;2873;50.966;7.210;2023-08-06T07:09:32;2.30;;;1.40;;
5696;SDS011;2873;50.966;7.210;2023-08-06T07:11:58;1.77;;;1.10;;
5696;SDS011;2873;50.966;7.210;2023-08-06T07:14:28;1.60;;;1.30;;
5696;SDS011;2873;50.966;7.210;2023-08-06T07:16:53;2.83;;;1.40;;
5696;SDS011;2873;50.966;7.210;2023-08-06T07:19:19;1.60;;;1.43;;
5696;SDS011;2873;50.966;7.210;2023-08-06T07:21:45;1.25;;;1.15;;
5696;SDS011;2873;50.966;7.210;2023-08-06T07:24:11;1.27;;;1.17;;
5696;SDS011;2873;50.966;7.210;2023-08-06T07:26:36;1.85;;;1.48;;
5696;SDS011;2873;50.966;7.210;2023-08-06T07:29:02;1.10;;;1.10;;
5696;SDS011;2873;50.966;7.210;2023-08-06T07:31:28;1.15;;;1.15;;
5696;SDS011;2873;50.966;7.210;2023-08-06T07:33:54;1.13;;;1.13;;
5696;SDS011;2873;50.966;7.210;2023-08-06T07:36:19;1.60;;;1.20;;
5696;SDS011;2873;50.966;7.210;2023-08-06T07:38:45;0.82;;;0.70;;
5696;SDS011;2873;50.966;7.210;2023-08-06T07:41:11;1.83;;;1.10;;
5696;SDS011;2873;50.966;7.210;2023-08-06T07:43:37;0.90;;;0.90;;
5696;SDS011;2873;50.966;7.210;2023-08-06T07:46:02;0.60;;;0.60;;
5696;SDS011;2873;50.966;7.210;2023-08-06T07:48:28;1.33;;;0.80;;
5696;SDS011;2873;50.966;7.210;2023-08-06T07:50:54;1.00;;;0.80;;
5696;SDS011;2873;50.966;7.210;2023-08-06T07:53:23;1.00;;;0.80;;
5696;SDS011;2873;50.966;7.210;2023-08-06T07:55:52;0.70;;;0.70;;
5696;SDS011;2873;50.966;7.210;2023-08-06T07:58:19;0.70;;;0.70;;
5696;SDS011;2873;50.966;7.210;2023-08-06T08:00:45;0.70;;;0.70;;
5696;SDS011;2873;50.966;7.210;2023-08-06T08:03:14;1.20;;;0.90;;
5696;SDS011;2873;50.966;7.210;2023-08-06T08:05:41;3.80;;;0.80;;
5696;SDS011;2873;50.966;7.210;2023-08-06T08:08:07;0.80;;;0.75;;
5696;SDS011;2873;50.966;7.210;2023-08-06T08:10:33;1.20;;;1.00;;
5696;SDS011;2873;50.966;7.210;2023-08-06T08:13:00;2.10;;;0.90;;
5696;SDS011;2873;50.966;7.210;2023-08-06T08:15:27;1.40;;;1.30;;
5696;SDS011;2873;50.966;7.210;2023-08-06T08:17:53;1.00;;;1.00;;
5696;SDS011;2873;50.966;7.210;2023-08-06T08:20:19;1.48;;;1.38;;
5696;SDS011;2873;50.966;7.210;2023-08-06T08:22:45;1.35;;;1.35;;
5696;SDS011;2873;50.966;7.210;2023-08-06T08:25:11;2.07;;;1.50;;
5696;SDS011;2873;50.966;7.210;2023-08-06T08:27:36;1.43;;;1.37;;
5696;SDS011;2873;50.966;7.210;2023-08-06T08:30:02;1.60;;;1.30;;
5696;SDS011;2873;50.966;7.210;2023-08-06T08:32:28;1.80;;;1.20;;
5696;SDS011;2873;50.966;7.210;2023-08-06T08:34:53;2.60;;;1.40;;
5696;SDS011;2873;50.966;7.210;2023-08-06T08:37:19;2.30;;;1.40;;
5696;SDS011;2873;50.966;7.210;2023-08-06T08:39:44;2.58;;;1.35;;
5696;SDS011;2873;50.966;7.210;2023-08-06T08:42:10;1.30;;;1.20;;
5696;SDS011;2873;50.966;7.210;2023-08-06T08:44:36;2.60;;;1.30;;
5696;SDS011;2873;50.966;7.210;2023-08-06T08:47:04;1.70;;;1.38;;
5696;SDS011;2873;50.966;7.210;2023-08-06T08:49:35;1.48;;;1.48;;
5696;SDS011;2873;50.966;7.210;2023-08-06T08:52:02;1.30;;;1.30;;
5696;SDS011;2873;50.966;7.210;2023-08-06T08:54:31;1.50;;;1.50;;
5696;SDS011;2873;50.966;7.210;2023-08-06T08:56:58;1.38;;;1.30;;
5696;SDS011;2873;50.966;7.210;2023-08-06T08:59:24;1.60;;;1.50;;
5696;SDS011;2873;50.966;7.210;2023-08-06T09:01:49;1.70;;;1.57;;
5696;SDS011;2873;50.966;7.210;2023-08-06T09:04:16;1.60;;;1.50;;
5696;SDS011;2873;50.966;7.210;2023-08-06T09:06:50;1.90;;;1.60;;
5696;SDS011;2873;50.966;7.210;2023-08-06T09:09:20;1.90;;;1.60;;
5696;SDS011;2873;50.966;7.210;2023-08-06T09:11:51;1.90;;;1.80;;
5696;SDS011;2873;50.966;7.210;2023-08-06T09:14:17;1.90;;;1.80;;
5696;SDS011;2873;50.966;7.210;2023-08-06T09:16:43;1.58;;;1.48;;
5696;SDS011;2873;50.966;7.210;2023-08-06T09:19:13;1.70;;;1.60;;
5696;SDS011;2873;50.966;7.210;2023-08-06T09:21:40;1.80;;;1.70;;
5696;SDS011;2873;50.966;7.210;2023-08-06T09:24:10;3.70;;;1.30;;
5696;SDS011;2873;50.966;7.210;2023-08-06T09:26:37;1.40;;;1.40;;
5696;SDS011;2873;50.966;7.210;2023-08-06T09:29:05;1.30;;;1.20;;
5696;SDS011;2873;50.966;7.210;2023-08-06T09:31:42;1.40;;;1.40;;
5696;SDS011;2873;50.966;7.210;2023-08-06T09:34:15;1.70;;;1.60;;
5696;SDS011;2873;50.966;7.210;2023-08-06T09:36:51;1.60;;;1.50;;
5696;SDS011;2873;50.966;7.210;2023-08-06T09:39:26;2.10;;;2.00;;
5696;SDS011;2873;50.966;7.210;2023-08-06T09:41:56;2.65;;;2.45;;
5696;SDS011;2873;50.966;7.210;2023-08-06T09:44:23;2.75;;;2.55;;
5696;SDS011;2873;50.966;7.210;2023-08-06T09:46:53;3.20;;;2.80;;
5696;SDS011;2873;50.966;7.210;2023-08-06T09:49:21;3.20;;;3.00;;
5696;SDS011;2873;50.966;7.210;2023-08-06T09:51:50;3.78;;;3.47;;
5696;SDS011;2873;50.966;7.210;2023-08-06T09:54:18;4.75;;;4.32;;
5696;SDS011;2873;50.966;7.210;2023-08-06T09:56:44;4.40;;;4.00;;
5696;SDS011;2873;50.966;7.210;2023-08-06T09:59:10;5.10;;;4.60;;
5696;SDS011;2873;50.966;7.210;2023-08-06T10:01:38;4.10;;;3.70;;
5696;SDS011;2873;50.966;7.210;2023-08-06T10:04:04;3.27;;;3.03;;
5696;SDS011;2873;50.966;7.210;2023-08-06T10:06:33;4.35;;;3.95;;
5696;SDS011;2873;50.966;7.210;2023-08-06T10:09:05;4.30;;;3.95;;
5696;SDS011;2873;50.966;7.210;2023-08-06T10:11:32;5.33;;;3.43;;
5696;SDS011;2873;50.966;7.210;2023-08-06T10:14:00;4.20;;;3.80;;
5696;SDS011;2873;50.966;7.210;2023-08-06T10:16:47;2.97;;;2.78;;
5696;SDS011;2873;50.966;7.210;2023-08-06T10:19:13;3.00;;;2.80;;
5696;SDS011;2873;50.966;7.210;2023-08-06T10:21:41;3.10;;;2.90;;
5696;SDS011;2873;50.966;7.210;2023-08-06T10:24:27;4.38;;;4.00;;
5696;SDS011;2873;50.966;7.210;2023-08-06T10:26:54;4.45;;;4.05;;
5696;SDS011;2873;50.966;7.210;2023-08-06T10:29:36;3.67;;;3.38;;
5696;SDS011;2873;50.966;7.210;2023-08-06T10:32:02;4.18;;;3.22;;
5696;SDS011;2873;50.966;7.210;2023-08-06T10:37:34;6.32;;;4.20;;
5696;SDS011;2873;50.966;7.210;2023-08-06T10:40:01;5.97;;;4.15;;
5696;SDS011;2873;50.966;7.210;2023-08-06T10:42:28;2.75;;;2.55;;
5696;SDS011;2873;50.966;7.210;2023-08-06T10:47:42;1.27;;;1.27;;
5696;SDS011;2873;50.966;7.210;2023-08-06T10:50:11;3.20;;;0.80;;
5696;SDS011;2873;50.966;7.210;2023-08-06T10:52:38;0.70;;;0.50;;
5696;SDS011;2873;50.966;7.210;2023-08-06T10:55:04;0.40;;;0.40;;
5696;SDS011;2873;50.966;7.210;2023-08-06T10:57:30;0.90;;;0.60;;
5696;SDS011;2873;50.966;7.210;2023-08-06T10:59:56;0.40;;;0.40;;
5696;SDS011;2873;50.966;7.210;2023-08-06T11:02:22;1.40;;;0.50;;
5696;SDS011;2873;50.966;7.210;2023-08-06T11:04:48;0.50;;;0.50;;
5696;SDS011;2873;50.966;7.210;2023-08-06T11:07:13;0.90;;;0.70;;
5696;SDS011;2873;50.966;7.210;2023-08-06T11:09:39;1.20;;;0.70;;
5696;SDS011;2873;50.966;7.210;2023-08-06T11:12:11;0.90;;;0.90;;
5696;SDS011;2873;50.966;7.210;2023-08-06T11:14:37;1.23;;;1.13;;
5696;SDS011;2873;50.966;7.210;2023-08-06T11:17:03;1.10;;;1.10;;
5696;SDS011;2873;50.966;7.210;2023-08-06T11:19:30;4.70;;;1.02;;
5696;SDS011;2873;50.966;7.210;2023-08-06T11:21:56;1.23;;;1.20;;
5696;SDS011;2873;50.966;7.210;2023-08-06T11:24:23;2.30;;;1.10;;
5696;SDS011;2873;50.966;7.210;2023-08-06T11:26:49;1.20;;;1.10;;
5696;SDS011;2873;50.966;7.210;2023-08-06T11:29:15;1.03;;;0.97;;
5696;SDS011;2873;50.966;7.210;2023-08-06T11:31:41;1.30;;;1.10;;
5696;SDS011;2873;50.966;7.210;2023-08-06T11:34:06;1.33;;;1.20;;
5696;SDS011;2873;50.966;7.210;2023-08-06T11:36:33;1.80;;;1.38;;
5696;SDS011;2873;50.966;7.210;2023-08-06T11:39:01;1.50;;;1.40;;
5696;SDS011;2873;50.966;7.210;2023-08-06T11:41:31;1.83;;;1.73;;
5696;SDS011;2873;50.966;7.210;2023-08-06T11:43:58;1.70;;;1.60;;
5696;SDS011;2873;50.966;7.210;2023-08-06T11:46:24;3.30;;;1.90;;
5696;SDS011;2873;50.966;7.210;2023-08-06T11:48:57;2.60;;;1.90;;
5696;SDS011;2873;50.966;7.210;2023-08-06T11:51:24;4.80;;;1.90;;
5696;SDS011;2873;50.966;7.210;2023-08-06T11:53:56;3.63;;;2.10;;
5696;SDS011;2873;50.966;7.210;2023-08-06T11:56:22;4.25;;;2.30;;
5696;SDS011;2873;50.966;7.210;2023-08-06T11:58:49;2.67;;;1.90;;
5696;SDS011;2873;50.966;7.210;2023-08-06T12:01:14;3.15;;;2.30;;
5696;SDS011;2873;50.966;7.210;2023-08-06T12:03:40;2.20;;;2.10;;
5696;SDS011;2873;50.966;7.210;2023-08-06T12:06:06;2.90;;;2.40;;
5696;SDS011;2873;50.966;7.210;2023-08-06T12:08:35;4.67;;;2.30;;
5696;SDS011;2873;50.966;7.210;2023-08-06T12:11:00;2.70;;;2.30;;
5696;SDS011;2873;50.966;7.210;2023-08-06T12:13:26;5.47;;;2.30;;
5696;SDS011;2873;50.966;7.210;2023-08-06T12:15:51;4.72;;;2.33;;
5696;SDS011;2873;50.966;7.210;2023-08-06T12:18:19;3.80;;;2.70;;
5696;SDS011;2873;50.966;7.210;2023-08-06T12:20:44;4.50;;;2.70;;
5696;SDS011;2873;50.966;7.210;2023-08-06T12:23:10;2.60;;;2.40;;
5696;SDS011;2873;50.966;7.210;2023-08-06T12:25:40;4.30;;;2.50;;
5696;SDS011;2873;50.966;7.210;2023-08-06T12:28:06;3.90;;;2.63;;
5696;SDS011;2873;50.966;7.210;2023-08-06T12:30:32;7.10;;;2.50;;
5696;SDS011;2873;50.966;7.210;2023-08-06T12:32:58;6.00;;;2.90;;
5696;SDS011;2873;50.966;7.210;2023-08-06T12:35:23;2.97;;;2.30;;
5696;SDS011;2873;50.966;7.210;2023-08-06T12:37:50;5.68;;;2.60;;
5696;SDS011;2873;50.966;7.210;2023-08-06T12:40:19;4.20;;;2.70;;
5696;SDS011;2873;50.966;7.210;2023-08-06T12:42:45;4.15;;;2.30;;
5696;SDS011;2873;50.966;7.210;2023-08-06T12:45:11;3.90;;;2.30;;
5696;SDS011;2873;50.966;7.210;2023-08-06T12:47:36;3.80;;;2.30;;
5696;SDS011;2873;50.966;7.210;2023-08-06T12:50:02;2.60;;;2.23;;
5696;SDS011;2873;50.966;7.210;2023-08-06T12:52:28;4.38;;;2.20;;
5696;SDS011;2873;50.966;7.210;2023-08-06T12:54:54;4.65;;;2.10;;
5696;SDS011;2873;50.966;7.210;2023-08-06T12:57:19;4.63;;;2.20;;
5696;SDS011;2873;50.966;7.210;2023-08-06T12:59:45;4.13;;;2.00;;
5696;SDS011;2873;50.966;7.210;2023-08-06T13:02:11;3.70;;;2.00;;
5696;SDS011;2873;50.966;7.210;2023-08-06T13:04:36;3.13;;;2.13;;
5696;SDS011;2873;50.966;7.210;2023-08-06T13:07:02;4.73;;;2.20;;
5696;SDS011;2873;50.966;7.210;2023-08-06T13:09:27;4.50;;;2.30;;
5696;SDS011;2873;50.966;7.210;2023-08-06T13:11:53;1.95;;;1.63;;
5696;SDS011;2873;50.966;7.210;2023-08-06T13:14:18;3.70;;;2.40;;
5696;SDS011;2873;50.966;7.210;2023-08-06T13:16:44;3.30;;;2.60;;
5696;SDS011;2873;50.966;7.210;2023-08-06T13:19:10;3.35;;;2.10;;
5696;SDS011;2873;50.966;7.210;2023-08-06T13:24:06;4.80;;;1.80;;
5696;SDS011;2873;50.966;7.210;2023-08-06T13:26:33;2.40;;;2.20;;
5696;SDS011;2873;50.966;7.210;2023-08-06T13:28:58;2.53;;;2.33;;
5696;SDS011;2873;50.966;7.210;2023-08-06T13:31:25;3.30;;;2.20;;
5696;SDS011;2873;50.966;7.210;2023-08-06T13:33:52;4.03;;;2.30;;
5696;SDS011;2873;50.966;7.210;2023-08-06T13:36:20;4.27;;;2.10;;
5696;SDS011;2873;50.966;7.210;2023-08-06T13:38:46;3.90;;;2.00;;
5696;SDS011;2873;50.966;7.210;2023-08-06T13:41:12;3.77;;;2.00;;
5696;SDS011;2873;50.966;7.210;2023-08-06T13:43:38;6.00;;;2.20;;
5696;SDS011;2873;50.966;7.210;2023-08-06T13:46:04;2.20;;;2.00;;
5696;SDS011;2873;50.966;7.210;2023-08-06T13:48:30;3.70;;;2.50;;
5696;SDS011;2873;50.966;7.210;2023-08-06T13:50:55;3.43;;;2.07;;
5696;SDS011;2873;50.966;7.210;2023-08-06T13:53:21;3.60;;;2.10;;
5696;SDS011;2873;50.966;7.210;2023-08-06T13:55:46;2.60;;;1.80;;
5696;SDS011;2873;50.966;7.210;2023-08-06T13:58:12;4.15;;;2.30;;
5696;SDS011;2873;50.966;7.210;2023-08-06T14:00:37;2.67;;;2.00;;
5696;SDS011;2873;50.966;7.210;2023-08-06T14:03:03;3.23;;;2.47;;
5696;SDS011;2873;50.966;7.210;2023-08-06T14:05:28;5.57;;;2.53;;
5696;SDS011;2873;50.966;7.210;2023-08-06T14:07:54;7.10;;;3.33;;
5696;SDS011;2873;50.966;7.210;2023-08-06T14:10:20;6.53;;;3.00;;
5696;SDS011;2873;50.966;7.210;2023-08-06T14:12:45;3.07;;;2.50;;
5696;SDS011;2873;50.966;7.210;2023-08-06T14:15:11;5.53;;;3.00;;
5696;SDS011;2873;50.966;7.210;2023-08-06T14:17:36;3.15;;;2.75;;
5696;SDS011;2873;50.966;7.210;2023-08-06T14:20:03;4.60;;;2.70;;
5696;SDS011;2873;50.966;7.210;2023-08-06T14:22:30;4.40;;;3.00;;
5696;SDS011;2873;50.966;7.210;2023-08-06T14:24:56;5.10;;;3.00;;
5696;SDS011;2873;50.966;7.210;2023-08-06T14:27:22;6.07;;;2.70;;
5696;SDS011;2873;50.966;7.210;2023-08-06T14:29:48;3.70;;;2.60;;
5696;SDS011;2873;50.966;7.210;2023-08-06T14:32:14;4.03;;;3.00;;
5696;SDS011;2873;50.966;7.210;2023-08-06T14:34:42;2.90;;;2.60;;
5696;SDS011;2873;50.966;7.210;2023-08-06T14:37:08;4.50;;;3.00;;
5696;SDS011;2873;50.966;7.210;2023-08-06T14:39:34;2.80;;;2.60;;
5696;SDS011;2873;50.966;7.210;2023-08-06T14:42:00;3.63;;;2.70;;
5696;SDS011;2873;50.966;7.210;2023-08-06T14:44:25;5.05;;;2.70;;
5696;SDS011;2873;50.966;7.210;2023-08-06T14:46:51;3.45;;;2.70;;
5696;SDS011;2873;50.966;7.210;2023-08-06T14:49:16;3.60;;;3.30;;
5696;SDS011;2873;50.966;7.210;2023-08-06T14:51:42;6.37;;;2.60;;
5696;SDS011;2873;50.966;7.210;2023-08-06T14:54:07;3.10;;;2.75;;
5696;SDS011;2873;50.966;7.210;2023-08-06T14:56:33;5.82;;;2.85;;
5696;SDS011;2873;50.966;7.210;2023-08-06T14:58:58;2.83;;;2.43;;
5696;SDS011;2873;50.966;7.210;2023-08-06T15:01:24;3.80;;;2.50;;
5696;SDS011;2873;50.966;7.210;2023-08-06T15:03:49;6.45;;;2.70;;
5696;SDS011;2873;50.966;7.210;2023-08-06T15:06:15;4.72;;;2.22;;
5696;SDS011;2873;50.966;7.210;2023-08-06T15:08:40;4.00;;;2.10;;
5696;SDS011;2873;50.966;7.210;2023-08-06T15:11:09;9.70;;;2.10;;
5696;SDS011;2873;50.966;7.210;2023-08-06T15:13:34;6.60;;;2.30;;
5696;SDS011;2873;50.966;7.210;2023-08-06T15:16:00;6.27;;;2.10;;
5696;SDS011;2873;50.966;7.210;2023-08-06T15:18:25;4.72;;;2.10;;
5696;SDS011;2873;50.966;7.210;2023-08-06T15:20:51;4.30;;;2.00;;